sensor_id;sensor_type;location;lat;lon;timestamp;P1;durP1;ratioP1;P2;durP2;ratioP2
58896;SDS011;44677;52.378;10.400;2022-11-28T06:32:39;9.40;;;6.70;;
58896;SDS011;44677;52.378;10.400;2022-11-28T06:35:04;10.40;;;7.30;;
58896;SDS011;44677;52.378;10.400;2022-11-28T06:37:30;8.50;;;6.60;;
58896;SDS011;44677;52.378;10.400;2022-11-28T06:39:55;16.90;;;10.80;;
58896;SDS011;44677;52.378;10.400;2022-11-28T06:42:21;22.80;;;15.20;;
58896;SDS011;44677;52.378;10.400;2022-11-28T06:44:46;14.60;;;9.40;;
58896;SDS011;44677;52.378;10.400;2022-11-28T06:47:12;16.50;;;11.10;;
58896;SDS011;44677;52.378;10.400;2022-11-28T06:49:37;17.00;;;9.90;;
58896;SDS011;44677;52.378;10.400;2022-11-28T06:52:02;15.20;;;9.60;;
58896;SDS011;44677;52.378;10.400;2022-11-28T06:54:28;13.10;;;7.50;;
58896;SDS011;44677;52.378;10.400;2022-11-28T06:56:53;9.90;;;7.70;;
58896;SDS011;44677;52.378;10.400;2022-11-28T06:59:19;12.20;;;7.60;;
58896;SDS011;44677;52.378;10.400;2022-11-28T07:01:44;11.60;;;7.60;;
58896;SDS011;44677;52.378;10.400;2022-11-28T07:04:10;12.30;;;7.60;;
58896;SDS011;44677;52.378;10.400;2022-11-28T07:06:35;11.50;;;7.40;;
58896;SDS011;44677;52.378;10.400;2022-11-28T07:09:01;13.10;;;8.00;;
58896;SDS011;44677;52.378;10.400;2022-11-28T07:11:30;11.40;;;8.20;;
58896;SDS011;44677;52.378;10.400;2022-11-28T07:13:56;10.60;;;7.00;;
58896;SDS011;44677;52.378;10.400;2022-11-28T07:16:24;8.90;;;7.10;;
58896;SDS011;44677;52.378;10.400;2022-11-28T07:18:50;11.10;;;7.20;;
58896;SDS011;44677;52.378;10.400;2022-11-28T07:21:17;9.70;;;7.20;;
58896;SDS011;44677;52.378;10.400;2022-11-28T07:23:43;9.20;;;6.60;;
58896;SDS011;44677;52.378;10.400;2022-11-28T07:26:09;9.30;;;6.60;;
58896;SDS011;44677;52.378;10.400;2022-11-28T07:28:35;6.90;;;5.70;;
58896;SDS011;44677;52.378;10.400;2022-11-28T07:31:12;10.90;;;7.60;;
58896;SDS011;44677;52.378;10.400;2022-11-28T07:33:39;10.40;;;6.30;;
58896;SDS011;44677;52.378;10.400;2022-11-28T07:36:07;13.50;;;7.30;;
58896;SDS011;44677;52.378;10.400;2022-11-28T07:38:36;11.80;;;7.40;;
58896;SDS011;44677;52.378;10.400;2022-11-28T07:41:09;10.80;;;7.10;;
58896;SDS011;44677;52.378;10.400;2022-11-28T07:43:35;9.70;;;7.30;;
58896;SDS011;44677;52.378;10.400;2022-11-28T07:46:02;10.50;;;6.40;;
58896;SDS011;44677;52.378;10.400;2022-11-28T07:48:29;11.00;;;6.50;;
58896;SDS011;44677;52.378;10.400;2022-11-28T07:50:54;8.40;;;5.90;;
58896;SDS011;44677;52.378;10.400;2022-11-28T07:53:19;8.20;;;6.20;;
58896;SDS011;44677;52.378;10.400;2022-11-28T07:55:45;10.50;;;6.40;;
58896;SDS011;44677;52.378;10.400;2022-11-28T07:58:10;9.90;;;6.20;;
58896;SDS011;44677;52.378;10.400;2022-11-28T08:00:36;11.80;;;10.00;;
58896;SDS011;44677;52.378;10.400;2022-11-28T08:03:01;14.00;;;10.30;;
58896;SDS011;44677;52.378;10.400;2022-11-28T08:05:26;12.80;;;9.40;;
58896;SDS011;44677;52.378;10.400;2022-11-28T08:07:52;10.60;;;7.10;;
58896;SDS011;44677;52.378;10.400;2022-11-28T08:10:17;8.90;;;7.50;;
58896;SDS011;44677;52.378;10.400;2022-11-28T08:12:43;9.00;;;6.90;;
58896;SDS011;44677;52.378;10.400;2022-11-28T08:15:08;8.20;;;7.00;;
58896;SDS011;44677;52.378;10.400;2022-11-28T08:17:34;10.90;;;7.70;;
58896;SDS011;44677;52.378;10.400;2022-11-28T08:20:00;11.40;;;7.50;;
58896;SDS011;44677;52.378;10.400;2022-11-28T08:22:25;10.50;;;7.10;;
58896;SDS011;44677;52.378;10.400;2022-11-28T08:24:51;8.90;;;6.70;;
58896;SDS011;44677;52.378;10.400;2022-11-28T08:27:16;10.60;;;6.80;;
58896;SDS011;44677;52.378;10.400;2022-11-28T08:29:42;9.50;;;6.80;;
58896;SDS011;44677;52.378;10.400;2022-11-28T08:32:07;8.50;;;6.30;;
58896;SDS011;44677;52.378;10.400;2022-11-28T08:34:32;11.20;;;8.00;;
58896;SDS011;44677;52.378;10.400;2022-11-28T08:36:58;9.30;;;5.80;;
58896;SDS011;44677;52.378;10.400;2022-11-28T08:39:23;10.50;;;7.50;;
58896;SDS011;44677;52.378;10.400;2022-11-28T08:41:49;8.80;;;6.50;;
58896;SDS011;44677;52.378;10.400;2022-11-28T08:44:14;9.50;;;6.50;;
58896;SDS011;44677;52.378;10.400;2022-11-28T08:46:40;10.40;;;8.00;;
58896;SDS011;44677;52.378;10.400;2022-11-28T08:49:05;12.10;;;7.30;;
58896;SDS011;44677;52.378;10.400;2022-11-28T08:51:31;9.40;;;6.50;;
58896;SDS011;44677;52.378;10.400;2022-11-28T08:53:57;10.60;;;7.20;;
58896;SDS011;44677;52.378;10.400;2022-11-28T08:56:22;9.70;;;7.20;;
58896;SDS011;44677;52.378;10.400;2022-11-28T08:58:47;9.00;;;7.00;;
58896;SDS011;44677;52.378;10.400;2022-11-28T09:01:17;10.20;;;6.90;;
58896;SDS011;44677;52.378;10.400;2022-11-28T09:03:44;10.40;;;7.50;;
58896;SDS011;44677;52.378;10.400;2022-11-28T09:06:10;10.10;;;7.20;;
58896;SDS011;44677;52.378;10.400;2022-11-28T09:08:35;11.60;;;8.10;;
58896;SDS011;44677;52.378;10.400;2022-11-28T09:11:01;10.50;;;8.40;;
58896;SDS011;44677;52.378;10.400;2022-11-28T09:13:26;8.50;;;7.30;;
58896;SDS011;44677;52.378;10.400;2022-11-28T09:15:51;10.60;;;6.80;;
58896;SDS011;44677;52.378;10.400;2022-11-28T09:18:17;9.30;;;6.90;;
58896;SDS011;44677;52.378;10.400;2022-11-28T09:20:43;8.10;;;6.10;;
58896;SDS011;44677;52.378;10.400;2022-11-28T09:23:08;8.70;;;6.80;;
58896;SDS011;44677;52.378;10.400;2022-11-28T09:25:34;10.90;;;7.10;;
58896;SDS011;44677;52.378;10.400;2022-11-28T09:28:03;11.40;;;7.70;;
58896;SDS011;44677;52.378;10.400;2022-11-28T09:30:28;9.20;;;6.70;;
58896;SDS011;44677;52.378;10.400;2022-11-28T09:32:54;11.00;;;7.30;;
58896;SDS011;44677;52.378;10.400;2022-11-28T09:35:19;9.40;;;7.10;;
58896;SDS011;44677;52.378;10.400;2022-11-28T09:37:45;10.90;;;7.30;;
58896;SDS011;44677;52.378;10.400;2022-11-28T09:40:14;11.80;;;7.10;;
58896;SDS011;44677;52.378;10.400;2022-11-28T09:42:42;9.00;;;7.20;;
58896;SDS011;44677;52.378;10.400;2022-11-28T09:45:19;9.20;;;6.40;;
58896;SDS011;44677;52.378;10.400;2022-11-28T09:47:53;7.70;;;6.40;;
58896;SDS011;44677;52.378;10.400;2022-11-28T09:50:24;11.60;;;7.20;;
58896;SDS011;44677;52.378;10.400;2022-11-28T09:55:59;10.50;;;7.00;;
58896;SDS011;44677;52.378;10.400;2022-11-28T09:58:44;11.80;;;8.00;;
58896;SDS011;44677;52.378;10.400;2022-11-28T10:04:03;12.40;;;7.70;;
58896;SDS011;44677;52.378;10.400;2022-11-28T10:06:41;12.00;;;7.00;;
58896;SDS011;44677;52.378;10.400;2022-11-28T10:09:19;9.30;;;6.30;;
58896;SDS011;44677;52.378;10.400;2022-11-28T10:17:49;11.80;;;7.30;;
58896;SDS011;44677;52.378;10.400;2022-11-28T10:20:31;12.80;;;7.20;;
58896;SDS011;44677;52.378;10.400;2022-11-28T10:23:04;11.40;;;7.10;;
58896;SDS011;44677;52.378;10.400;2022-11-28T10:25:35;9.60;;;6.70;;
58896;SDS011;44677;52.378;10.400;2022-11-28T10:28:04;11.20;;;7.80;;
58896;SDS011;44677;52.378;10.400;2022-11-28T10:30:32;10.60;;;6.70;;
58896;SDS011;44677;52.378;10.400;2022-11-28T10:33:03;12.20;;;7.30;;
58896;SDS011;44677;52.378;10.400;2022-11-28T10:35:46;10.10;;;6.80;;
58896;SDS011;44677;52.378;10.400;2022-11-28T10:38:15;10.10;;;6.30;;
58896;SDS011;44677;52.378;10.400;2022-11-28T10:59:55;9.20;;;6.60;;
58896;SDS011;44677;52.378;10.400;2022-11-28T11:02:49;11.50;;;7.50;;
58896;SDS011;44677;52.378;10.400;2022-11-28T11:05:23;10.00;;;7.30;;
58896;SDS011;44677;52.378;10.400;2022-11-28T11:12:45;13.60;;;8.40;;
58896;SDS011;44677;52.378;10.400;2022-11-28T11:15:15;11.90;;;7.60;;
58896;SDS011;44677;52.378;10.400;2022-11-28T11:17:43;9.90;;;7.10;;
58896;SDS011;44677;52.378;10.400;2022-11-28T11:22:53;10.10;;;7.90;;
58896;SDS011;44677;52.378;10.400;2022-11-28T11:25:24;13.70;;;7.60;;
58896;SDS011;44677;52.378;10.400;2022-11-28T11:32:51;9.60;;;6.70;;
58896;SDS011;44677;52.378;10.400;2022-11-28T11:35:25;9.30;;;6.60;;
58896;SDS011;44677;52.378;10.400;2022-11-28T11:37:53;10.60;;;7.80;;
58896;SDS011;44677;52.378;10.400;2022-11-28T11:40:46;9.00;;;6.90;;
58896;SDS011;44677;52.378;10.400;2022-11-28T11:43:21;8.50;;;6.50;;
58896;SDS011;44677;52.378;10.400;2022-11-28T11:48:38;9.60;;;6.50;;
58896;SDS011;44677;52.378;10.400;2022-11-28T11:51:04;10.00;;;7.10;;
58896;SDS011;44677;52.378;10.400;2022-11-28T11:53:30;11.50;;;7.10;;
58896;SDS011;44677;52.378;10.400;2022-11-28T11:55:57;11.20;;;7.40;;
58896;SDS011;44677;52.378;10.400;2022-11-28T11:58:27;11.90;;;7.50;;
58896;SDS011;44677;52.378;10.400;2022-11-28T12:01:00;9.20;;;6.90;;
58896;SDS011;44677;52.378;10.400;2022-11-28T12:06:00;12.40;;;7.70;;
58896;SDS011;44677;52.378;10.400;2022-11-28T12:08:34;9.80;;;7.10;;
58896;SDS011;44677;52.378;10.400;2022-11-28T12:11:06;9.10;;;6.70;;
58896;SDS011;44677;52.378;10.400;2022-11-28T12:13:36;7.90;;;6.80;;
58896;SDS011;44677;52.378;10.400;2022-11-28T12:16:09;7.60;;;5.90;;
58896;SDS011;44677;52.378;10.400;2022-11-28T12:35:24;12.80;;;6.90;;
58896;SDS011;44677;52.378;10.400;2022-11-28T12:40:34;9.90;;;6.90;;
58896;SDS011;44677;52.378;10.400;2022-11-28T12:46:11;9.40;;;6.70;;
58896;SDS011;44677;52.378;10.400;2022-11-28T12:49:03;12.40;;;6.90;;
58896;SDS011;44677;52.378;10.400;2022-11-28T12:51:41;11.20;;;6.90;;
58896;SDS011;44677;52.378;10.400;2022-11-28T12:57:05;11.70;;;7.50;;
58896;SDS011;44677;52.378;10.400;2022-11-28T12:59:39;10.60;;;7.90;;
58896;SDS011;44677;52.378;10.400;2022-11-28T13:02:59;12.20;;;7.30;;
58896;SDS011;44677;52.378;10.400;2022-11-28T13:10:44;16.10;;;9.00;;
58896;SDS011;44677;52.378;10.400;2022-11-28T13:13:13;18.80;;;12.40;;
58896;SDS011;44677;52.378;10.400;2022-11-28T13:23:49;11.80;;;7.60;;
58896;SDS011;44677;52.378;10.400;2022-11-28T13:32:22;9.90;;;6.60;;
58896;SDS011;44677;52.378;10.400;2022-11-28T13:34:48;9.80;;;6.60;;
58896;SDS011;44677;52.378;10.400;2022-11-28T13:37:15;9.60;;;7.20;;
58896;SDS011;44677;52.378;10.400;2022-11-28T13:39:52;12.20;;;7.80;;
58896;SDS011;44677;52.378;10.400;2022-11-28T13:42:33;12.30;;;8.80;;
58896;SDS011;44677;52.378;10.400;2022-11-28T13:45:03;10.00;;;7.00;;
58896;SDS011;44677;52.378;10.400;2022-11-28T13:47:40;11.30;;;8.00;;
58896;SDS011;44677;52.378;10.400;2022-11-28T13:59:15;10.60;;;7.30;;
58896;SDS011;44677;52.378;10.400;2022-11-28T14:01:43;10.30;;;7.60;;
58896;SDS011;44677;52.378;10.400;2022-11-28T14:04:11;9.90;;;7.00;;
58896;SDS011;44677;52.378;10.400;2022-11-28T14:09:06;10.00;;;7.00;;
58896;SDS011;44677;52.378;10.400;2022-11-28T14:25:31;11.40;;;8.00;;
58896;SDS011;44677;52.378;10.400;2022-11-28T14:28:01;11.90;;;8.30;;
58896;SDS011;44677;52.378;10.400;2022-11-28T14:30:33;12.80;;;8.50;;
58896;SDS011;44677;52.378;10.400;2022-11-28T14:33:01;10.40;;;7.00;;
58896;SDS011;44677;52.378;10.400;2022-11-28T14:40:58;11.30;;;7.60;;
58896;SDS011;44677;52.378;10.400;2022-11-28T14:43:26;11.10;;;7.10;;
58896;SDS011;44677;52.378;10.400;2022-11-28T14:46:14;10.90;;;7.00;;
58896;SDS011;44677;52.378;10.400;2022-11-28T14:54:35;12.70;;;7.40;;
58896;SDS011;44677;52.378;10.400;2022-11-28T14:57:09;10.60;;;7.80;;
58896;SDS011;44677;52.378;10.400;2022-11-28T14:59:37;9.50;;;6.70;;
58896;SDS011;44677;52.378;10.400;2022-11-28T15:02:18;12.00;;;7.10;;
58896;SDS011;44677;52.378;10.400;2022-11-28T15:05:17;10.90;;;8.10;;
58896;SDS011;44677;52.378;10.400;2022-11-28T15:07:59;13.70;;;7.50;;
58896;SDS011;44677;52.378;10.400;2022-11-28T15:10:34;11.40;;;7.50;;
58896;SDS011;44677;52.378;10.400;2022-11-28T15:13:19;12.50;;;7.80;;
58896;SDS011;44677;52.378;10.400;2022-11-28T15:16:10;14.70;;;7.80;;
58896;SDS011;44677;52.378;10.400;2022-11-28T15:18:37;14.20;;;8.90;;
58896;SDS011;44677;52.378;10.400;2022-11-28T15:21:06;16.20;;;8.50;;
58896;SDS011;44677;52.378;10.400;2022-11-28T15:23:35;12.40;;;8.40;;
58896;SDS011;44677;52.378;10.400;2022-11-28T15:26:02;13.50;;;8.30;;
58896;SDS011;44677;52.378;10.400;2022-11-28T15:28:30;14.20;;;8.70;;
58896;SDS011;44677;52.378;10.400;2022-11-28T15:30:59;14.50;;;8.60;;
58896;SDS011;44677;52.378;10.400;2022-11-28T15:33:26;17.00;;;9.90;;
58896;SDS011;44677;52.378;10.400;2022-11-28T15:36:00;16.40;;;9.00;;
58896;SDS011;44677;52.378;10.400;2022-11-28T15:38:37;15.10;;;8.50;;
58896;SDS011;44677;52.378;10.400;2022-11-28T15:41:05;16.00;;;8.50;;
58896;SDS011;44677;52.378;10.400;2022-11-28T15:43:31;12.10;;;8.20;;
58896;SDS011;44677;52.378;10.400;2022-11-28T15:45:58;11.70;;;8.20;;
58896;SDS011;44677;52.378;10.400;2022-11-28T15:48:46;11.10;;;7.80;;
58896;SDS011;44677;52.378;10.400;2022-11-28T15:53:51;14.90;;;7.50;;
58896;SDS011;44677;52.378;10.400;2022-11-28T15:56:16;12.80;;;8.10;;
58896;SDS011;44677;52.378;10.400;2022-11-28T15:58:43;13.90;;;8.80;;
58896;SDS011;44677;52.378;10.400;2022-11-28T16:01:12;11.80;;;7.80;;
58896;SDS011;44677;52.378;10.400;2022-11-28T16:03:44;13.00;;;8.20;;
58896;SDS011;44677;52.378;10.400;2022-11-28T16:06:13;17.70;;;10.60;;
58896;SDS011;44677;52.378;10.400;2022-11-28T16:08:44;14.40;;;9.50;;
58896;SDS011;44677;52.378;10.400;2022-11-28T16:11:21;15.20;;;8.70;;
58896;SDS011;44677;52.378;10.400;2022-11-28T16:13:48;18.30;;;9.80;;
58896;SDS011;44677;52.378;10.400;2022-11-28T16:16:15;15.50;;;10.10;;
58896;SDS011;44677;52.378;10.400;2022-11-28T16:18:43;13.30;;;8.60;;
58896;SDS011;44677;52.378;10.400;2022-11-28T16:21:11;13.20;;;9.20;;
58896;SDS011;44677;52.378;10.400;2022-11-28T16:23:37;16.80;;;8.80;;
58896;SDS011;44677;52.378;10.400;2022-11-28T16:26:23;13.20;;;8.40;;
58896;SDS011;44677;52.378;10.400;2022-11-28T16:29:01;15.10;;;8.50;;
58896;SDS011;44677;52.378;10.400;2022-11-28T16:31:29;13.90;;;8.80;;
58896;SDS011;44677;52.378;10.400;2022-11-28T16:33:55;12.80;;;8.10;;
58896;SDS011;44677;52.378;10.400;2022-11-28T16:36:25;12.20;;;9.10;;
58896;SDS011;44677;52.378;10.400;2022-11-28T16:39:33;13.30;;;9.10;;
58896;SDS011;44677;52.378;10.400;2022-11-28T16:41:52;13.70;;;9.60;;
58896;SDS011;44677;52.378;10.400;2022-11-28T16:44:29;14.20;;;8.80;;
58896;SDS011;44677;52.378;10.400;2022-11-28T16:51:59;21.70;;;11.70;;
58896;SDS011;44677;52.378;10.400;2022-11-28T16:54:56;18.70;;;11.50;;
58896;SDS011;44677;52.378;10.400;2022-11-28T16:57:22;14.10;;;9.40;;
58896;SDS011;44677;52.378;10.400;2022-11-28T16:59:49;19.80;;;10.00;;
58896;SDS011;44677;52.378;10.400;2022-11-28T17:04:46;13.60;;;8.70;;
58896;SDS011;44677;52.378;10.400;2022-11-28T17:07:15;14.60;;;8.50;;
58896;SDS011;44677;52.378;10.400;2022-11-28T17:09:42;13.90;;;9.70;;
58896;SDS011;44677;52.378;10.400;2022-11-28T17:14:50;13.70;;;8.50;;
58896;SDS011;44677;52.378;10.400;2022-11-28T17:17:17;13.20;;;8.70;;
58896;SDS011;44677;52.378;10.400;2022-11-28T17:19:43;12.90;;;9.10;;
58896;SDS011;44677;52.378;10.400;2022-11-28T17:22:11;15.30;;;9.50;;
58896;SDS011;44677;52.378;10.400;2022-11-28T17:24:39;14.20;;;9.30;;
58896;SDS011;44677;52.378;10.400;2022-11-28T17:27:05;14.60;;;8.80;;
58896;SDS011;44677;52.378;10.400;2022-11-28T17:29:33;12.70;;;8.70;;
58896;SDS011;44677;52.378;10.400;2022-11-28T17:31:59;14.40;;;8.90;;
58896;SDS011;44677;52.378;10.400;2022-11-28T17:34:29;12.10;;;8.10;;
58896;SDS011;44677;52.378;10.400;2022-11-28T17:36:56;15.00;;;9.80;;
58896;SDS011;44677;52.378;10.400;2022-11-28T17:39:23;12.60;;;8.80;;
58896;SDS011;44677;52.378;10.400;2022-11-28T17:41:48;15.00;;;9.30;;
58896;SDS011;44677;52.378;10.400;2022-11-28T17:44:21;16.50;;;9.00;;
58896;SDS011;44677;52.378;10.400;2022-11-28T17:46:49;18.50;;;9.60;;
58896;SDS011;44677;52.378;10.400;2022-11-28T17:49:16;14.60;;;9.90;;
58896;SDS011;44677;52.378;10.400;2022-11-28T17:51:42;14.90;;;9.60;;
58896;SDS011;44677;52.378;10.400;2022-11-28T17:54:09;14.70;;;9.50;;
58896;SDS011;44677;52.378;10.400;2022-11-28T17:56:36;15.40;;;11.10;;
58896;SDS011;44677;52.378;10.400;2022-11-28T17:59:01;18.40;;;10.50;;
58896;SDS011;44677;52.378;10.400;2022-11-28T18:01:27;13.20;;;9.10;;
58896;SDS011;44677;52.378;10.400;2022-11-28T18:03:57;16.40;;;9.00;;
58896;SDS011;44677;52.378;10.400;2022-11-28T18:06:23;16.80;;;10.30;;
58896;SDS011;44677;52.378;10.400;2022-11-28T18:08:49;16.70;;;10.30;;
58896;SDS011;44677;52.378;10.400;2022-11-28T18:11:15;13.50;;;9.90;;
58896;SDS011;44677;52.378;10.400;2022-11-28T18:16:08;18.10;;;10.60;;
58896;SDS011;44677;52.378;10.400;2022-11-28T18:18:35;15.40;;;10.30;;
58896;SDS011;44677;52.378;10.400;2022-11-28T18:21:01;17.80;;;10.60;;
58896;SDS011;44677;52.378;10.400;2022-11-28T18:23:27;15.70;;;10.80;;
58896;SDS011;44677;52.378;10.400;2022-11-28T18:25:52;15.50;;;10.30;;
58896;SDS011;44677;52.378;10.400;2022-11-28T18:28:18;19.00;;;10.90;;
58896;SDS011;44677;52.378;10.400;2022-11-28T18:30:46;18.80;;;11.10;;
58896;SDS011;44677;52.378;10.400;2022-11-28T18:33:12;18.40;;;11.20;;
58896;SDS011;44677;52.378;10.400;2022-11-28T18:35:38;16.00;;;10.50;;
58896;SDS011;44677;52.378;10.400;2022-11-28T18:38:05;17.40;;;11.40;;
58896;SDS011;44677;52.378;10.400;2022-11-28T18:40:31;23.60;;;14.90;;
58896;SDS011;44677;52.378;10.400;2022-11-28T18:43:00;22.50;;;13.80;;
58896;SDS011;44677;52.378;10.400;2022-11-28T18:45:26;18.20;;;11.10;;
58896;SDS011;44677;52.378;10.400;2022-11-28T18:47:51;16.00;;;10.20;;
58896;SDS011;44677;52.378;10.400;2022-11-28T18:50:17;26.90;;;15.80;;
58896;SDS011;44677;52.378;10.400;2022-11-28T18:52:42;17.40;;;11.30;;
58896;SDS011;44677;52.378;10.400;2022-11-28T18:55:08;14.80;;;9.90;;
58896;SDS011;44677;52.378;10.400;2022-11-28T18:57:34;18.40;;;10.80;;
58896;SDS011;44677;52.378;10.400;2022-11-28T19:00:00;14.40;;;9.90;;
58896;SDS011;44677;52.378;10.400;2022-11-28T19:02:27;19.20;;;10.80;;
58896;SDS011;44677;52.378;10.400;2022-11-28T19:04:53;14.60;;;10.40;;
58896;SDS011;44677;52.378;10.400;2022-11-28T19:07:19;16.90;;;10.10;;
58896;SDS011;44677;52.378;10.400;2022-11-28T19:09:45;14.70;;;10.50;;
58896;SDS011;44677;52.378;10.400;2022-11-28T19:12:11;18.00;;;10.80;;
58896;SDS011;44677;52.378;10.400;2022-11-28T19:14:37;16.60;;;10.60;;
58896;SDS011;44677;52.378;10.400;2022-11-28T19:17:03;18.60;;;11.10;;
58896;SDS011;44677;52.378;10.400;2022-11-28T19:19:29;16.70;;;11.70;;
58896;SDS011;44677;52.378;10.400;2022-11-28T19:21:55;22.00;;;12.10;;
58896;SDS011;44677;52.378;10.400;2022-11-28T19:24:21;26.40;;;16.10;;
58896;SDS011;44677;52.378;10.400;2022-11-28T19:26:48;22.40;;;14.10;;
58896;SDS011;44677;52.378;10.400;2022-11-28T19:29:13;18.10;;;12.20;;
58896;SDS011;44677;52.378;10.400;2022-11-28T19:31:39;18.70;;;11.70;;
58896;SDS011;44677;52.378;10.400;2022-11-28T19:34:06;17.80;;;11.20;;
58896;SDS011;44677;52.378;10.400;2022-11-28T19:36:33;20.90;;;13.40;;
58896;SDS011;44677;52.378;10.400;2022-11-28T19:39:02;17.40;;;11.30;;
58896;SDS011;44677;52.378;10.400;2022-11-28T19:41:28;16.30;;;11.40;;
58896;SDS011;44677;52.378;10.400;2022-11-28T19:43:54;18.80;;;11.10;;
58896;SDS011;44677;52.378;10.400;2022-11-28T19:46:19;19.20;;;10.50;;
58896;SDS011;44677;52.378;10.400;2022-11-28T19:48:45;15.70;;;10.10;;
58896;SDS011;44677;52.378;10.400;2022-11-28T19:51:10;16.80;;;11.30;;
58896;SDS011;44677;52.378;10.400;2022-11-28T19:53:37;17.10;;;10.40;;
58896;SDS011;44677;52.378;10.400;2022-11-28T19:56:04;16.50;;;10.70;;
58896;SDS011;44677;52.378;10.400;2022-11-28T19:58:33;15.50;;;9.80;;
58896;SDS011;44677;52.378;10.400;2022-11-28T20:01:10;19.10;;;11.00;;
58896;SDS011;44677;52.378;10.400;2022-11-28T20:03:38;16.80;;;10.30;;
58896;SDS011;44677;52.378;10.400;2022-11-28T20:06:26;18.50;;;11.20;;
58896;SDS011;44677;52.378;10.400;2022-11-28T20:08:53;16.60;;;11.00;;
58896;SDS011;44677;52.378;10.400;2022-11-28T20:11:21;18.40;;;11.20;;
58896;SDS011;44677;52.378;10.400;2022-11-28T20:13:51;17.30;;;11.00;;
58896;SDS011;44677;52.378;10.400;2022-11-28T20:16:20;18.00;;;10.30;;
58896;SDS011;44677;52.378;10.400;2022-11-28T20:18:45;17.30;;;10.60;;
58896;SDS011;44677;52.378;10.400;2022-11-28T20:21:15;19.20;;;10.50;;
58896;SDS011;44677;52.378;10.400;2022-11-28T20:23:42;17.40;;;10.60;;
58896;SDS011;44677;52.378;10.400;2022-11-28T20:26:09;17.20;;;10.90;;
58896;SDS011;44677;52.378;10.400;2022-11-28T20:28:36;17.00;;;11.30;;
58896;SDS011;44677;52.378;10.400;2022-11-28T20:31:03;16.20;;;10.40;;
58896;SDS011;44677;52.378;10.400;2022-11-28T20:33:31;17.20;;;10.30;;
58896;SDS011;44677;52.378;10.400;2022-11-28T20:36:03;15.00;;;10.70;;
58896;SDS011;44677;52.378;10.400;2022-11-28T20:38:33;16.90;;;10.20;;
58896;SDS011;44677;52.378;10.400;2022-11-28T20:41:02;16.30;;;10.90;;
58896;SDS011;44677;52.378;10.400;2022-11-28T20:43:29;21.50;;;10.90;;
58896;SDS011;44677;52.378;10.400;2022-11-28T20:45:59;15.90;;;9.80;;
58896;SDS011;44677;52.378;10.400;2022-11-28T20:48:26;17.80;;;9.80;;
58896;SDS011;44677;52.378;10.400;2022-11-28T20:50:52;18.30;;;10.70;;
58896;SDS011;44677;52.378;10.400;2022-11-28T20:53:18;15.90;;;10.10;;
58896;SDS011;44677;52.378;10.400;2022-11-28T20:55:43;14.10;;;9.80;;
58896;SDS011;44677;52.378;10.400;2022-11-28T20:58:08;15.80;;;10.00;;
